createdAt,value
2022-10-18T00:00:54.755Z,8.10
2022-10-18T00:03:23.427Z,5.45
2022-10-18T00:05:51.580Z,6.88
2022-10-18T00:08:22.210Z,6.75
2022-10-18T00:10:50.042Z,8.43
2022-10-18T00:13:17.906Z,5.72
2022-10-18T00:15:58.520Z,6.18
2022-10-18T00:18:26.495Z,7.03
2022-10-18T00:21:02.683Z,6.20
2022-10-18T00:23:31.778Z,5.18
2022-10-18T00:26:01.489Z,8.18
2022-10-18T00:28:29.061Z,7.00
2022-10-18T00:30:56.898Z,6.28
2022-10-18T00:33:24.368Z,8.18
2022-10-18T00:35:54.058Z,6.22
2022-10-18T00:38:21.335Z,8.63
2022-10-18T00:40:49.092Z,8.30
2022-10-18T00:43:18.208Z,9.52
2022-10-18T00:45:45.602Z,9.23
2022-10-18T00:48:16.092Z,7.78
2022-10-18T00:50:43.781Z,7.85
2022-10-18T00:53:20.303Z,7.70
2022-10-18T00:55:48.249Z,7.17
2022-10-18T00:58:17.565Z,7.15
2022-10-18T01:00:45.263Z,6.45
2022-10-18T01:03:13.234Z,6.05
2022-10-18T01:05:45.809Z,6.63
2022-10-18T01:08:44.811Z,7.88
2022-10-18T01:11:26.943Z,8.30
2022-10-18T01:14:21.773Z,8.48
2022-10-18T01:16:55.300Z,12.10
2022-10-18T01:20:00.169Z,5.75
2022-10-18T01:22:44.232Z,6.75
2022-10-18T01:25:43.711Z,6.68
2022-10-18T01:28:53.070Z,8.45
2022-10-18T01:31:44.770Z,8.20
2022-10-18T01:34:18.571Z,7.53
2022-10-18T01:36:52.808Z,6.80
2022-10-18T01:39:25.049Z,7.35
2022-10-18T01:41:57.639Z,5.88
2022-10-18T01:44:28.099Z,8.27
2022-10-18T01:46:57.035Z,6.95
2022-10-18T01:49:25.941Z,8.07
2022-10-18T01:51:54.094Z,13.90
2022-10-18T01:54:41.620Z,6.82
2022-10-18T01:57:09.323Z,7.78
2022-10-18T01:59:48.994Z,6.40
2022-10-18T02:02:41.835Z,8.70
2022-10-18T02:05:27.715Z,6.70
2022-10-18T02:08:18.913Z,13.52
2022-10-18T02:11:05.278Z,6.72
2022-10-18T02:13:41.970Z,12.43
2022-10-18T02:16:24.500Z,7.50
2022-10-18T02:19:09.174Z,6.78
2022-10-18T02:21:39.184Z,8.02
2022-10-18T02:24:08.098Z,7.03
2022-10-18T02:26:35.878Z,7.75
2022-10-18T02:29:03.602Z,6.50
2022-10-18T02:31:49.893Z,8.27
2022-10-18T02:34:29.744Z,9.57
2022-10-18T02:36:59.835Z,8.45
2022-10-18T02:39:43.659Z,6.05
2022-10-18T02:42:11.896Z,8.25
2022-10-18T02:44:39.568Z,8.25
2022-10-18T02:47:08.502Z,7.82
2022-10-18T02:49:35.978Z,9.50
2022-10-18T02:52:03.451Z,5.72
2022-10-18T02:54:30.800Z,7.60
2022-10-18T02:56:58.218Z,6.72
2022-10-18T02:59:25.740Z,11.45
2022-10-18T03:01:53.203Z,7.90
2022-10-18T03:04:20.962Z,8.52
2022-10-18T03:06:48.466Z,7.65
2022-10-18T03:09:16.928Z,7.78
2022-10-18T03:11:44.383Z,7.38
2022-10-18T03:14:11.818Z,6.00
2022-10-18T03:16:39.124Z,10.85
2022-10-18T03:19:06.586Z,7.70
2022-10-18T03:21:34.090Z,6.55
2022-10-18T03:24:02.200Z,7.18
2022-10-18T03:26:29.804Z,8.20
2022-10-18T03:28:57.415Z,8.32
2022-10-18T03:31:25.017Z,7.07
2022-10-18T03:33:52.583Z,6.82
2022-10-18T03:36:19.869Z,7.45
2022-10-18T03:38:47.722Z,6.28
2022-10-18T03:41:15.090Z,9.48
2022-10-18T03:43:42.524Z,6.15
2022-10-18T03:46:10.105Z,5.68
2022-10-18T03:48:37.715Z,6.25
2022-10-18T03:51:05.443Z,6.47
2022-10-18T03:53:33.015Z,5.93
2022-10-18T03:56:00.340Z,8.30
2022-10-18T03:58:27.841Z,5.43
2022-10-18T04:00:55.703Z,12.38
2022-10-18T04:03:23.692Z,8.63
2022-10-18T04:05:51.330Z,10.82
2022-10-18T04:08:20.048Z,9.93
2022-10-18T04:10:47.392Z,7.88
2022-10-18T04:13:15.031Z,7.72
2022-10-18T04:15:43.379Z,6.75
2022-10-18T04:18:10.898Z,10.90
2022-10-18T04:20:38.312Z,6.20
2022-10-18T04:23:05.888Z,5.70
2022-10-18T04:25:33.439Z,7.15
2022-10-18T04:28:01.282Z,8.77
2022-10-18T04:30:28.830Z,6.80
2022-10-18T04:32:56.216Z,7.32
2022-10-18T04:35:26.147Z,5.38
2022-10-18T04:37:56.130Z,6.72
2022-10-18T04:40:23.611Z,6.22
2022-10-18T04:42:53.509Z,6.93
2022-10-18T04:45:21.313Z,10.50
2022-10-18T04:47:48.626Z,5.95
2022-10-18T04:50:16.141Z,6.38
2022-10-18T04:52:43.729Z,4.72
2022-10-18T04:55:13.849Z,7.65
2022-10-18T04:57:41.251Z,5.97
2022-10-18T05:00:08.956Z,7.43
2022-10-18T05:02:36.491Z,5.25
2022-10-18T05:05:04.611Z,4.85
2022-10-18T05:07:31.916Z,5.25
2022-10-18T05:09:59.419Z,6.35
2022-10-18T05:12:26.940Z,7.25
2022-10-18T05:14:56.275Z,4.97
2022-10-18T05:17:23.884Z,4.35
2022-10-18T05:19:51.349Z,5.82
2022-10-18T05:22:19.802Z,5.68
2022-10-18T05:24:47.269Z,10.38
2022-10-18T05:27:14.699Z,5.00
2022-10-18T05:29:42.150Z,5.50
2022-10-18T05:32:09.437Z,5.57
2022-10-18T05:34:36.907Z,6.07
2022-10-18T05:37:04.341Z,5.70
2022-10-18T05:39:31.819Z,9.60
2022-10-18T05:42:00.105Z,6.03
2022-10-18T05:44:27.441Z,4.65
2022-10-18T05:46:54.778Z,6.53
2022-10-18T05:49:22.336Z,5.95
2022-10-18T05:51:49.702Z,5.28
2022-10-18T05:54:17.423Z,7.15
2022-10-18T05:56:44.916Z,5.95
2022-10-18T05:59:12.566Z,6.18
2022-10-18T06:01:41.535Z,6.40
2022-10-18T06:04:11.554Z,15.50
2022-10-18T06:06:39.270Z,29.95
2022-10-18T06:09:08.704Z,22.67
2022-10-18T06:11:38.484Z,39.03
2022-10-18T06:14:08.118Z,39.28
2022-10-18T06:16:38.460Z,34.63
2022-10-18T06:19:05.951Z,12.75
2022-10-18T06:21:33.321Z,18.10
2022-10-18T06:24:00.750Z,15.85
2022-10-18T06:26:28.619Z,12.82
2022-10-18T06:28:57.319Z,10.75
2022-10-18T06:31:25.019Z,12.30
2022-10-18T06:33:53.452Z,9.48
2022-10-18T06:36:24.270Z,12.40
2022-10-18T06:38:52.039Z,12.00
2022-10-18T06:41:20.455Z,7.93
2022-10-18T06:43:53.307Z,12.27
2022-10-18T06:46:21.940Z,6.97
2022-10-18T06:48:49.462Z,10.70
2022-10-18T06:51:18.336Z,7.07
2022-10-18T06:53:59.113Z,10.60
2022-10-18T06:56:33.970Z,8.27
2022-10-18T06:59:01.284Z,6.25
2022-10-18T07:01:28.948Z,8.63
2022-10-18T07:03:56.538Z,8.18
2022-10-18T07:06:24.530Z,7.47
2022-10-18T07:08:55.388Z,8.52
2022-10-18T07:11:26.936Z,9.82
2022-10-18T07:14:00.813Z,7.57
2022-10-18T07:16:28.772Z,9.90
2022-10-18T07:18:56.215Z,6.70
2022-10-18T07:21:26.352Z,6.70
2022-10-18T07:23:54.382Z,5.43
2022-10-18T07:26:21.866Z,5.47
2022-10-18T07:29:01.841Z,8.80
2022-10-18T07:31:29.957Z,8.43
2022-10-18T07:33:57.979Z,10.98
2022-10-18T07:36:26.173Z,7.13
2022-10-18T07:38:53.881Z,6.68
2022-10-18T07:41:22.155Z,7.00
2022-10-18T07:43:51.208Z,7.57
2022-10-18T07:46:20.685Z,9.18
2022-10-18T07:48:51.844Z,6.40
2022-10-18T07:51:20.508Z,6.00
2022-10-18T07:53:51.672Z,6.28
2022-10-18T07:56:21.699Z,6.32
2022-10-18T07:58:52.185Z,7.20
2022-10-18T08:01:21.401Z,12.95
2022-10-18T08:03:54.773Z,7.38
2022-10-18T08:06:23.185Z,6.72
2022-10-18T08:08:50.965Z,5.03
2022-10-18T08:11:24.753Z,7.38
2022-10-18T08:13:53.209Z,7.82
2022-10-18T08:19:00.242Z,7.05
2022-10-18T08:21:27.617Z,5.13
2022-10-18T08:23:56.196Z,7.40
2022-10-18T08:26:23.656Z,6.03
2022-10-18T08:28:54.297Z,6.68
2022-10-18T08:31:26.549Z,6.25
2022-10-18T08:33:56.944Z,6.00
2022-10-18T08:36:24.614Z,4.93
2022-10-18T08:38:52.197Z,7.35
2022-10-18T08:41:57.941Z,5.50
2022-10-18T08:44:28.821Z,5.45
2022-10-18T08:47:16.593Z,10.10
2022-10-18T08:49:53.008Z,5.53
2022-10-18T08:52:44.946Z,6.65
2022-10-18T08:55:43.143Z,6.40
2022-10-18T08:58:17.787Z,5.90
2022-10-18T09:01:37.987Z,5.45
2022-10-18T09:04:41.122Z,5.55
2022-10-18T09:07:27.148Z,5.85
2022-10-18T09:10:05.905Z,6.15
2022-10-18T09:12:45.721Z,5.63
2022-10-18T09:15:48.533Z,5.85
2022-10-18T09:18:43.474Z,5.15
2022-10-18T09:21:22.986Z,6.05
2022-10-18T09:24:05.684Z,4.38
2022-10-18T09:26:48.102Z,4.57
2022-10-18T09:29:16.689Z,5.47
2022-10-18T09:31:52.233Z,5.32
2022-10-18T09:34:29.811Z,4.78
2022-10-18T09:36:57.941Z,5.93
2022-10-18T09:39:37.028Z,5.00
2022-10-18T09:42:15.015Z,5.97
2022-10-18T09:44:58.771Z,5.28
2022-10-18T09:47:45.976Z,6.72
2022-10-18T09:50:38.388Z,5.30
2022-10-18T09:53:21.806Z,7.35
2022-10-18T09:56:10.671Z,5.97
2022-10-18T09:58:42.747Z,6.30
2022-10-18T10:01:29.980Z,6.97
2022-10-18T10:03:58.032Z,6.80
2022-10-18T10:06:27.261Z,5.65
2022-10-18T10:09:31.368Z,7.85
2022-10-18T10:12:00.879Z,15.65
2022-10-18T10:14:30.736Z,10.32
2022-10-18T10:17:20.339Z,11.93
2022-10-18T10:20:40.343Z,9.10
2022-10-18T10:23:21.966Z,7.80
2022-10-18T10:26:03.996Z,9.02
2022-10-18T10:28:48.786Z,7.82
2022-10-18T10:31:19.829Z,7.32
2022-10-18T10:33:48.062Z,6.68
2022-10-18T10:36:21.613Z,7.82
2022-10-18T10:39:09.048Z,8.15
2022-10-18T10:41:38.333Z,7.53
2022-10-18T10:44:25.356Z,6.60
2022-10-18T10:46:54.978Z,7.47
2022-10-18T10:49:39.787Z,7.47
2022-10-18T10:52:26.887Z,6.88
2022-10-18T10:55:11.328Z,7.45
2022-10-18T10:57:52.366Z,6.25
2022-10-18T11:00:43.825Z,6.22
2022-10-18T11:03:33.773Z,5.10
2022-10-18T11:06:02.030Z,7.15
2022-10-18T11:08:51.659Z,6.97
2022-10-18T11:11:28.009Z,5.43
2022-10-18T11:14:24.750Z,7.82
2022-10-18T11:17:35.171Z,7.22
2022-10-18T11:20:19.643Z,6.45
2022-10-18T11:22:50.175Z,6.03
2022-10-18T11:25:18.111Z,5.88
2022-10-18T11:27:56.914Z,6.93
2022-10-18T11:30:55.571Z,8.07
2022-10-18T11:33:56.179Z,5.40
2022-10-18T11:36:20.898Z,5.28
2022-10-18T11:39:18.705Z,4.65
2022-10-18T11:42:00.665Z,6.47
2022-10-18T11:44:30.792Z,5.90
2022-10-18T11:47:13.528Z,4.85
2022-10-18T11:50:04.700Z,4.63
2022-10-18T11:52:55.027Z,5.03
2022-10-18T11:56:00.125Z,4.72
2022-10-18T11:58:56.915Z,5.57
2022-10-18T12:01:37.241Z,5.05
2022-10-18T12:04:14.457Z,5.15
2022-10-18T12:06:45.322Z,7.53
2022-10-18T12:09:31.282Z,7.68
2022-10-18T12:12:06.584Z,6.05
2022-10-18T12:14:38.461Z,5.43
2022-10-18T12:17:41.630Z,5.07
2022-10-18T12:20:33.821Z,4.65
2022-10-18T12:23:06.501Z,5.43
2022-10-18T12:25:38.360Z,5.50
2022-10-18T12:28:36.317Z,4.22
2022-10-18T12:31:15.579Z,6.28
2022-10-18T12:33:47.834Z,4.13
2022-10-18T12:36:21.147Z,6.13
2022-10-18T12:41:31.194Z,5.35
2022-10-18T12:44:28.997Z,3.63
2022-10-18T12:47:01.387Z,4.25
2022-10-18T12:49:32.224Z,5.13
2022-10-18T12:52:02.821Z,4.70
2022-10-18T12:54:32.443Z,6.88
2022-10-18T12:57:01.865Z,5.07
2022-10-18T12:59:29.376Z,5.40
2022-10-18T13:01:59.731Z,3.90
2022-10-18T13:04:33.597Z,4.80
2022-10-18T13:07:00.923Z,7.45
2022-10-18T13:09:31.356Z,4.45
2022-10-18T13:12:18.613Z,4.55
2022-10-18T13:15:26.494Z,3.65
2022-10-18T13:18:27.447Z,3.90
2022-10-18T13:21:10.323Z,4.95
2022-10-18T13:24:16.262Z,5.07
2022-10-18T13:27:34.933Z,4.82
2022-10-18T13:30:21.555Z,4.07
2022-10-18T13:33:15.651Z,3.67
2022-10-18T13:35:55.614Z,3.28
2022-10-18T13:38:38.506Z,4.18
2022-10-18T13:41:07.701Z,3.80
2022-10-18T13:43:52.161Z,3.70
2022-10-18T13:46:24.628Z,4.38
2022-10-18T13:49:05.901Z,3.90
2022-10-18T13:51:54.666Z,3.65
2022-10-18T13:54:40.266Z,4.72
2022-10-18T13:57:14.074Z,4.20
2022-10-18T14:00:00.378Z,5.13
2022-10-18T14:02:51.231Z,5.68
2022-10-18T14:05:52.273Z,4.90
2022-10-18T14:08:36.413Z,6.15
2022-10-18T14:11:25.254Z,5.72
2022-10-18T14:14:04.880Z,3.75
2022-10-18T14:16:54.791Z,3.42
2022-10-18T14:19:42.656Z,3.55
2022-10-18T14:22:25.343Z,3.42
2022-10-18T14:24:57.734Z,6.87
2022-10-18T14:27:32.492Z,6.57
2022-10-18T14:30:18.797Z,3.78
2022-10-18T14:32:52.080Z,4.15
2022-10-18T14:35:32.493Z,5.47
2022-10-18T14:38:03.471Z,4.13
2022-10-18T14:40:33.220Z,6.90
2022-10-18T14:43:14.521Z,3.75
2022-10-18T14:45:42.796Z,4.93
2022-10-18T14:48:16.800Z,3.35
2022-10-18T14:50:49.880Z,4.07
2022-10-18T14:55:56.483Z,3.65
2022-10-18T14:58:23.991Z,5.95
2022-10-18T15:00:51.815Z,3.35
2022-10-18T15:03:19.351Z,5.28
2022-10-18T15:06:02.370Z,4.57
2022-10-18T15:08:42.010Z,5.65
2022-10-18T15:11:14.140Z,6.32
2022-10-18T15:13:50.398Z,8.10
2022-10-18T15:16:20.595Z,8.18
2022-10-18T15:19:07.420Z,7.13
2022-10-18T15:21:36.161Z,6.07
2022-10-18T15:24:27.954Z,5.28
2022-10-18T15:26:59.797Z,6.15
2022-10-18T15:29:32.520Z,5.45
2022-10-18T15:32:08.094Z,4.88
2022-10-18T15:34:35.648Z,6.93
2022-10-18T15:37:28.270Z,5.38
2022-10-18T15:40:18.480Z,4.95
2022-10-18T15:42:46.232Z,7.15
2022-10-18T15:45:27.036Z,5.53
2022-10-18T15:48:00.501Z,4.97
2022-10-18T15:50:40.109Z,5.57
2022-10-18T15:53:23.182Z,4.07
2022-10-18T15:55:58.470Z,6.60
2022-10-18T15:58:30.418Z,4.13
2022-10-18T16:01:00.800Z,5.05
2022-10-18T16:03:28.784Z,4.40
2022-10-18T16:06:04.652Z,5.22
2022-10-18T16:08:37.607Z,4.18
2022-10-18T16:11:06.002Z,5.60
2022-10-18T16:13:34.378Z,4.60
2022-10-18T16:16:02.452Z,5.63
2022-10-18T16:18:30.602Z,5.38
2022-10-18T16:20:58.178Z,5.03
2022-10-18T16:23:28.687Z,5.13
2022-10-18T16:25:56.993Z,5.25
2022-10-18T16:28:26.071Z,6.93
2022-10-18T16:30:59.482Z,5.78
2022-10-18T16:33:27.558Z,4.60
2022-10-18T16:35:55.363Z,4.40
2022-10-18T16:38:32.460Z,7.53
2022-10-18T16:41:04.648Z,5.20
2022-10-18T16:43:33.173Z,8.65
2022-10-18T16:46:01.527Z,5.43
2022-10-18T16:48:29.082Z,8.07
2022-10-18T16:50:57.885Z,8.00
2022-10-18T16:53:26.195Z,7.25
2022-10-18T16:55:59.397Z,8.95
2022-10-18T16:58:29.371Z,7.65
2022-10-18T17:00:58.014Z,7.80
2022-10-18T17:03:26.209Z,6.60
2022-10-18T17:05:54.095Z,5.60
2022-10-18T17:08:24.399Z,7.07
2022-10-18T17:10:55.043Z,6.50
2022-10-18T17:13:23.629Z,5.38
2022-10-18T17:15:51.688Z,6.10
2022-10-18T17:18:26.337Z,6.00
2022-10-18T17:20:54.532Z,5.15
2022-10-18T17:23:21.958Z,6.13
2022-10-18T17:26:04.788Z,5.07
2022-10-18T17:28:38.381Z,4.95
2022-10-18T17:31:07.599Z,5.97
2022-10-18T17:33:35.360Z,5.15
2022-10-18T17:36:02.664Z,5.53
2022-10-18T17:38:30.072Z,6.32
2022-10-18T17:40:57.559Z,5.22
2022-10-18T17:43:25.129Z,6.75
2022-10-18T17:45:56.943Z,7.13
2022-10-18T17:48:26.040Z,7.45
2022-10-18T17:50:54.730Z,6.50
2022-10-18T17:53:25.858Z,5.45
2022-10-18T17:56:02.594Z,4.32
2022-10-18T17:58:31.368Z,6.60
2022-10-18T18:01:17.811Z,6.90
2022-10-18T18:03:47.608Z,5.82
2022-10-18T18:06:31.346Z,6.75
2022-10-18T18:09:06.865Z,6.18
2022-10-18T18:11:37.705Z,5.57
2022-10-18T18:14:09.938Z,6.45
2022-10-18T18:16:49.148Z,5.00
2022-10-18T18:19:19.074Z,4.97
2022-10-18T18:21:49.481Z,4.88
2022-10-18T18:24:17.759Z,6.30
2022-10-18T18:26:45.355Z,5.18
2022-10-18T18:29:12.865Z,4.65
2022-10-18T18:31:43.731Z,5.47
2022-10-18T18:34:12.246Z,5.30
2022-10-18T18:36:39.898Z,5.10
2022-10-18T18:39:08.967Z,5.10
2022-10-18T18:41:37.804Z,6.18
2022-10-18T18:44:06.340Z,5.72
2022-10-18T18:46:38.889Z,5.00
2022-10-18T18:49:07.942Z,5.38
2022-10-18T18:51:38.110Z,4.50
2022-10-18T18:54:09.595Z,5.68
2022-10-18T18:56:38.264Z,4.15
2022-10-18T18:59:07.177Z,5.07
2022-10-18T19:01:38.278Z,4.32
2022-10-18T19:04:07.220Z,5.28
2022-10-18T19:06:43.180Z,4.63
2022-10-18T19:09:19.189Z,6.40
2022-10-18T19:11:48.318Z,5.35
2022-10-18T19:14:15.948Z,4.30
2022-10-18T19:16:49.101Z,5.25
2022-10-18T19:21:53.407Z,6.18
2022-10-18T19:24:22.115Z,5.53
2022-10-18T19:26:50.976Z,5.45
2022-10-18T19:29:22.059Z,6.28
2022-10-18T19:31:54.104Z,6.38
2022-10-18T19:34:23.423Z,5.95
2022-10-18T19:36:51.610Z,5.90
2022-10-18T19:39:27.868Z,6.53
2022-10-18T19:41:57.468Z,5.93
2022-10-18T19:44:28.421Z,8.18
2022-10-18T19:46:56.148Z,10.95
2022-10-18T19:49:23.473Z,6.63
2022-10-18T19:51:50.933Z,6.10
2022-10-18T19:54:18.741Z,11.48
2022-10-18T19:56:46.661Z,7.15
2022-10-18T19:59:15.880Z,8.43
2022-10-18T20:01:44.128Z,6.97
2022-10-18T20:04:13.164Z,5.70
2022-10-18T20:06:41.576Z,6.80
2022-10-18T20:09:13.442Z,6.25
2022-10-18T20:11:43.871Z,7.10
2022-10-18T20:14:11.619Z,6.32
2022-10-18T20:16:39.179Z,6.65
2022-10-18T20:19:07.611Z,6.35
2022-10-18T20:21:36.331Z,7.57
2022-10-18T20:24:05.521Z,6.22
2022-10-18T20:26:34.620Z,6.80
2022-10-18T20:29:02.145Z,6.40
2022-10-18T20:31:37.302Z,7.47
2022-10-18T20:34:11.564Z,5.78
2022-10-18T20:36:40.348Z,6.15
2022-10-18T20:39:07.919Z,5.00
2022-10-18T20:41:41.224Z,6.22
2022-10-18T20:44:14.181Z,5.18
2022-10-18T20:46:42.067Z,6.03
2022-10-18T20:49:13.069Z,5.60
2022-10-18T20:51:40.994Z,6.20
2022-10-18T20:54:09.426Z,5.30
2022-10-18T20:56:38.782Z,7.05
2022-10-18T20:59:09.573Z,7.00
2022-10-18T21:01:39.933Z,6.03
2022-10-18T21:04:09.789Z,6.45
2022-10-18T21:06:42.869Z,6.15
2022-10-18T21:11:41.525Z,5.88
2022-10-18T21:14:17.527Z,5.60
2022-10-18T21:16:46.155Z,5.68
2022-10-18T21:19:23.827Z,6.93
2022-10-18T21:21:54.869Z,4.97
2022-10-18T21:24:24.022Z,6.50
2022-10-18T21:26:51.655Z,6.78
2022-10-18T21:29:22.256Z,6.60
2022-10-18T21:31:58.047Z,5.85
2022-10-18T21:34:26.294Z,6.10
2022-10-18T21:36:54.158Z,4.72
2022-10-18T21:41:51.572Z,5.35
2022-10-18T21:44:19.073Z,5.70
2022-10-18T21:46:46.937Z,6.38
2022-10-18T21:49:15.554Z,6.00
2022-10-18T21:51:43.632Z,6.57
2022-10-18T21:54:16.514Z,5.05
2022-10-18T21:56:44.944Z,5.63
2022-10-18T21:59:12.889Z,4.75
2022-10-18T22:01:40.859Z,5.30
2022-10-18T22:04:22.026Z,5.32
2022-10-18T22:06:50.080Z,4.68
2022-10-18T22:09:17.797Z,4.70
2022-10-18T22:11:48.628Z,5.78
2022-10-18T22:14:16.185Z,5.47
2022-10-18T22:16:43.710Z,5.93
2022-10-18T22:19:11.864Z,4.85
2022-10-18T22:21:39.338Z,5.50
2022-10-18T22:24:09.061Z,7.30
2022-10-18T22:26:40.145Z,4.43
2022-10-18T22:29:11.853Z,4.65
2022-10-18T22:31:42.092Z,6.00
2022-10-18T22:34:13.315Z,5.72
2022-10-18T22:36:41.168Z,4.95
2022-10-18T22:39:09.448Z,4.97
2022-10-18T22:41:37.105Z,6.95
2022-10-18T22:44:05.108Z,4.90
2022-10-18T22:46:33.178Z,5.40
2022-10-18T22:49:01.190Z,4.43
2022-10-18T22:51:28.725Z,4.40
2022-10-18T22:53:56.401Z,5.90
2022-10-18T22:56:24.303Z,4.60
2022-10-18T22:58:52.535Z,5.10
2022-10-18T23:01:22.698Z,5.43
2022-10-18T23:03:55.228Z,5.78
2022-10-18T23:06:25.224Z,5.07
2022-10-18T23:08:54.441Z,4.38
2022-10-18T23:11:22.336Z,4.88
2022-10-18T23:13:50.168Z,4.57
2022-10-18T23:16:18.309Z,4.25
2022-10-18T23:18:53.665Z,4.50
2022-10-18T23:21:24.306Z,4.28
2022-10-18T23:23:52.946Z,4.03
2022-10-18T23:26:25.216Z,4.07
2022-10-18T23:28:53.689Z,3.93
2022-10-18T23:31:33.285Z,4.70
2022-10-18T23:34:04.080Z,9.65
2022-10-18T23:36:33.778Z,4.65
2022-10-18T23:39:02.261Z,5.03
2022-10-18T23:41:30.046Z,4.07
2022-10-18T23:43:57.677Z,5.25
2022-10-18T23:46:25.250Z,4.55
2022-10-18T23:48:52.834Z,5.78
2022-10-18T23:51:20.511Z,4.53
2022-10-18T23:53:49.096Z,4.63
2022-10-18T23:56:17.070Z,4.22
2022-10-18T23:58:45.632Z,4.75
